createdAt,value
2022-10-09T00:03:24.878Z,8.83
2022-10-09T00:08:26.690Z,8.87
2022-10-09T00:13:28.334Z,8.76
2022-10-09T00:18:30.302Z,8.65
2022-10-09T00:23:32.525Z,8.60
2022-10-09T00:28:37.828Z,8.53
2022-10-09T00:33:40.613Z,8.48
2022-10-09T00:38:42.537Z,8.48
2022-10-09T00:43:56.110Z,8.47
2022-10-09T00:49:12.470Z,8.47
2022-10-09T00:54:18.269Z,8.45
2022-10-09T00:59:20.791Z,8.34
2022-10-09T01:04:22.579Z,8.30
2022-10-09T01:09:38.110Z,8.27
2022-10-09T01:14:54.355Z,8.25
2022-10-09T01:20:17.868Z,8.12
2022-10-09T01:25:35.462Z,8.17
2022-10-09T01:30:37.600Z,8.12
2022-10-09T01:35:41.571Z,8.11
2022-10-09T01:40:43.715Z,7.99
2022-10-09T01:45:47.134Z,7.96
2022-10-09T01:50:55.363Z,7.88
2022-10-09T01:56:09.245Z,7.82
2022-10-09T02:01:15.728Z,7.81
2022-10-09T02:06:19.224Z,7.71
2022-10-09T02:11:23.807Z,7.73
2022-10-09T02:16:37.395Z,7.61
2022-10-09T02:21:50.322Z,7.67
2022-10-09T02:26:56.153Z,7.68
2022-10-09T02:31:57.996Z,7.54
2022-10-09T02:36:59.687Z,7.48
2022-10-09T02:42:01.652Z,7.50
2022-10-09T02:47:03.353Z,7.55
2022-10-09T02:52:05.439Z,7.37
2022-10-09T02:57:07.078Z,7.41
2022-10-09T03:02:08.924Z,7.40
2022-10-09T03:07:10.922Z,7.10
2022-10-09T03:12:13.920Z,7.00
2022-10-09T03:17:15.611Z,7.06
2022-10-09T03:22:17.297Z,7.06
2022-10-09T03:27:19.189Z,7.06
2022-10-09T03:32:20.950Z,7.04
2022-10-09T03:37:22.852Z,6.75
2022-10-09T03:42:25.047Z,6.76
2022-10-09T03:47:26.777Z,6.82
2022-10-09T03:52:28.442Z,6.86
2022-10-09T03:57:30.161Z,6.79
2022-10-09T04:02:33.428Z,6.64
2022-10-09T04:07:35.266Z,6.49
2022-10-09T04:12:37.029Z,6.49
2022-10-09T04:17:38.723Z,6.47
2022-10-09T04:22:40.544Z,6.25
2022-10-09T04:27:42.182Z,6.35
2022-10-09T04:32:43.857Z,6.48
2022-10-09T04:37:45.546Z,6.49
2022-10-09T04:42:47.589Z,6.46
2022-10-09T04:47:49.489Z,6.35
2022-10-09T04:52:51.562Z,6.19
2022-10-09T04:57:53.317Z,6.16
2022-10-09T05:02:55.407Z,6.18
2022-10-09T05:07:57.086Z,6.13
2022-10-09T05:12:59.375Z,6.09
2022-10-09T05:18:01.136Z,6.04
2022-10-09T05:23:03.019Z,6.05
2022-10-09T05:28:06.304Z,6.14
2022-10-09T05:33:08.079Z,6.14
2022-10-09T05:38:09.785Z,6.06
2022-10-09T05:43:11.494Z,6.11
2022-10-09T05:48:13.185Z,6.18
2022-10-09T05:53:14.830Z,5.73
2022-10-09T05:58:16.453Z,5.98
2022-10-09T06:03:18.154Z,6.19
2022-10-09T06:08:20.096Z,6.39
2022-10-09T06:13:21.958Z,6.43
2022-10-09T06:18:23.627Z,6.31
2022-10-09T06:23:25.775Z,6.58
2022-10-09T06:28:32.356Z,6.75
2022-10-09T06:33:35.890Z,6.88
2022-10-09T06:38:38.915Z,7.06
2022-10-09T06:43:40.659Z,7.30
2022-10-09T06:48:42.968Z,7.51
2022-10-09T06:53:48.999Z,7.72
2022-10-09T06:58:51.427Z,8.02
2022-10-09T07:03:56.169Z,8.38
2022-10-09T07:09:04.410Z,8.65
2022-10-09T07:14:08.383Z,8.88
2022-10-09T07:19:11.712Z,9.01
2022-10-09T07:24:14.457Z,9.16
2022-10-09T07:29:18.219Z,9.35
2022-10-09T07:34:19.903Z,9.54
2022-10-09T07:39:21.743Z,9.77
2022-10-09T07:44:23.405Z,9.99
2022-10-09T07:49:25.133Z,10.19
2022-10-09T07:54:27.063Z,10.34
2022-10-09T07:59:28.904Z,10.49
2022-10-09T08:04:30.894Z,10.64
2022-10-09T08:09:32.675Z,10.74
2022-10-09T08:14:34.442Z,10.88
2022-10-09T08:19:36.037Z,11.01
2022-10-09T08:24:38.397Z,11.12
2022-10-09T08:29:40.509Z,11.26
2022-10-09T08:34:42.289Z,11.40
2022-10-09T08:39:43.992Z,11.57
2022-10-09T08:44:49.078Z,11.70
2022-10-09T08:50:00.157Z,11.84
2022-10-09T08:55:28.764Z,12.02
2022-10-09T09:00:43.993Z,12.21
2022-10-09T09:05:55.073Z,12.36
2022-10-09T09:11:28.076Z,12.50
2022-10-09T09:16:48.149Z,12.59
2022-10-09T09:21:51.917Z,12.66
2022-10-09T09:26:59.423Z,12.71
2022-10-09T09:32:01.265Z,12.83
2022-10-09T09:37:03.169Z,12.93
2022-10-09T09:42:13.320Z,13.03
2022-10-09T09:47:27.743Z,13.21
2022-10-09T09:52:35.953Z,13.28
2022-10-09T09:57:44.397Z,13.40
2022-10-09T10:02:46.778Z,13.53
2022-10-09T10:07:51.357Z,13.61
2022-10-09T10:12:53.503Z,13.63
2022-10-09T10:18:04.580Z,13.68
2022-10-09T10:23:20.445Z,13.80
2022-10-09T10:28:31.343Z,13.92
2022-10-09T10:33:36.405Z,13.99
2022-10-09T10:38:58.781Z,14.04
2022-10-09T10:44:22.904Z,14.18
2022-10-09T10:49:24.691Z,14.26
2022-10-09T10:54:29.486Z,14.30
2022-10-09T10:59:42.615Z,14.30
2022-10-09T11:04:50.107Z,14.34
2022-10-09T11:10:24.162Z,14.35
2022-10-09T11:15:44.677Z,14.36
2022-10-09T11:21:02.758Z,14.38
2022-10-09T11:26:04.329Z,14.34
2022-10-09T11:31:41.543Z,14.38
2022-10-09T11:36:45.387Z,14.46
2022-10-09T11:41:48.898Z,14.51
2022-10-09T11:47:09.935Z,14.54
2022-10-09T11:52:26.345Z,14.57
2022-10-09T11:57:29.368Z,14.66
2022-10-09T12:02:31.817Z,14.77
2022-10-09T12:07:33.627Z,14.84
2022-10-09T12:12:38.734Z,14.93
2022-10-09T12:17:49.724Z,14.99
2022-10-09T12:23:25.054Z,15.13
2022-10-09T12:28:28.069Z,15.22
2022-10-09T12:33:45.197Z,15.36
2022-10-09T12:38:46.991Z,15.43
2022-10-09T12:43:54.527Z,15.42
2022-10-09T12:48:57.959Z,15.39
2022-10-09T12:54:00.063Z,15.37
2022-10-09T12:59:02.574Z,15.38
2022-10-09T13:04:06.350Z,15.35
2022-10-09T13:09:21.494Z,15.36
2022-10-09T13:14:44.608Z,15.38
2022-10-09T13:19:55.504Z,15.43
2022-10-09T13:24:59.163Z,15.47
2022-10-09T13:30:01.546Z,15.47
2022-10-09T13:35:03.547Z,15.53
2022-10-09T13:40:05.966Z,15.55
2022-10-09T13:45:08.441Z,15.54
2022-10-09T13:50:13.720Z,15.56
2022-10-09T13:55:15.480Z,15.55
2022-10-09T14:00:17.384Z,15.59
2022-10-09T14:05:19.365Z,15.55
2022-10-09T14:10:23.884Z,15.56
2022-10-09T14:15:25.911Z,15.58
2022-10-09T14:20:28.510Z,15.68
2022-10-09T14:25:30.432Z,15.73
2022-10-09T14:30:32.166Z,15.76
2022-10-09T14:35:34.532Z,15.77
2022-10-09T14:40:41.745Z,15.76
2022-10-09T14:45:43.441Z,15.72
2022-10-09T14:50:45.077Z,15.66
2022-10-09T14:55:46.894Z,15.61
2022-10-09T15:00:48.674Z,15.59
2022-10-09T15:05:50.425Z,15.57
2022-10-09T15:10:53.234Z,15.47
2022-10-09T15:15:58.965Z,15.41
2022-10-09T15:21:00.908Z,15.31
2022-10-09T15:26:02.806Z,15.22
2022-10-09T15:31:06.552Z,15.13
2022-10-09T15:36:08.518Z,15.03
2022-10-09T15:41:27.359Z,14.93
2022-10-09T15:46:30.093Z,14.84
2022-10-09T15:51:33.210Z,14.78
2022-10-09T15:56:38.900Z,14.74
2022-10-09T16:01:41.839Z,14.66
2022-10-09T16:06:43.543Z,14.56
2022-10-09T16:11:45.462Z,14.49
2022-10-09T16:16:48.528Z,14.39
2022-10-09T16:21:51.538Z,14.33
2022-10-09T16:26:54.367Z,14.21
2022-10-09T16:31:56.621Z,14.16
2022-10-09T16:37:01.857Z,14.15
2022-10-09T16:42:04.071Z,14.09
2022-10-09T16:47:05.889Z,14.04
2022-10-09T16:52:07.566Z,14.03
2022-10-09T16:57:09.290Z,14.04
2022-10-09T17:02:12.271Z,14.07
2022-10-09T17:07:14.141Z,14.00
2022-10-09T17:12:15.967Z,13.71
2022-10-09T17:17:17.768Z,13.40
2022-10-09T17:22:19.445Z,13.21
2022-10-09T17:27:21.172Z,13.19
2022-10-09T17:32:23.001Z,13.17
2022-10-09T17:37:25.008Z,13.14
2022-10-09T17:42:26.629Z,13.16
2022-10-09T17:47:28.372Z,13.18
2022-10-09T17:52:30.058Z,13.20
2022-10-09T17:57:31.871Z,13.10
2022-10-09T18:02:33.597Z,13.00
2022-10-09T18:07:35.520Z,12.95
2022-10-09T18:12:37.175Z,12.97
2022-10-09T18:17:39.017Z,13.02
2022-10-09T18:22:40.675Z,12.97
2022-10-09T18:27:42.399Z,12.92
2022-10-09T18:32:44.163Z,12.89
2022-10-09T18:37:45.940Z,12.89
2022-10-09T18:42:47.957Z,12.88
2022-10-09T18:47:51.315Z,12.84
2022-10-09T18:52:54.085Z,12.67
2022-10-09T18:57:56.063Z,12.53
2022-10-09T19:02:57.738Z,12.59
2022-10-09T19:07:59.477Z,12.66
2022-10-09T19:13:01.262Z,12.61
2022-10-09T19:18:02.900Z,12.44
2022-10-09T19:23:04.659Z,12.36
2022-10-09T19:28:06.422Z,12.19
2022-10-09T19:33:08.554Z,12.00
2022-10-09T19:38:10.247Z,11.82
2022-10-09T19:43:12.924Z,11.61
2022-10-09T19:48:16.139Z,11.38
2022-10-09T19:53:17.805Z,11.23
2022-10-09T19:58:19.502Z,11.19
2022-10-09T20:03:21.246Z,11.25
2022-10-09T20:08:22.902Z,11.33
2022-10-09T20:13:24.574Z,11.39
2022-10-09T20:18:26.885Z,11.45
2022-10-09T20:23:28.566Z,11.56
2022-10-09T20:28:35.236Z,11.60
2022-10-09T20:33:38.437Z,11.60
2022-10-09T20:38:40.111Z,11.62
2022-10-09T20:43:41.857Z,11.64
2022-10-09T20:48:44.485Z,11.58
2022-10-09T20:53:50.589Z,11.48
2022-10-09T20:58:52.632Z,11.41
2022-10-09T21:03:59.055Z,11.38
2022-10-09T21:09:00.815Z,11.36
2022-10-09T21:14:03.170Z,11.33
2022-10-09T21:19:06.175Z,11.19
2022-10-09T21:24:08.064Z,11.20
2022-10-09T21:29:11.194Z,11.18
2022-10-09T21:34:12.871Z,11.15
2022-10-09T21:39:14.633Z,11.13
2022-10-09T21:44:16.384Z,11.06
2022-10-09T21:49:27.168Z,11.03
2022-10-09T21:54:28.991Z,11.04
2022-10-09T21:59:30.631Z,10.96
2022-10-09T22:04:32.457Z,10.83
2022-10-09T22:09:34.230Z,10.85
2022-10-09T22:14:35.896Z,10.88
2022-10-09T22:19:37.573Z,10.95
2022-10-09T22:24:39.333Z,10.85
2022-10-09T22:29:41.034Z,10.76
2022-10-09T22:34:42.685Z,10.83
2022-10-09T22:39:44.343Z,10.93
2022-10-09T22:44:46.098Z,10.93
2022-10-09T22:49:50.374Z,10.81
2022-10-09T22:54:52.608Z,10.75
2022-10-09T22:59:54.264Z,10.61
2022-10-09T23:04:55.952Z,10.58
2022-10-09T23:09:57.726Z,10.44
2022-10-09T23:14:59.522Z,10.37
2022-10-09T23:20:01.205Z,10.49
2022-10-09T23:25:03.551Z,10.55
2022-10-09T23:30:05.947Z,10.64
2022-10-09T23:35:08.229Z,10.70
2022-10-09T23:40:09.955Z,10.67
2022-10-09T23:45:11.642Z,10.73
2022-10-09T23:50:13.275Z,10.77
2022-10-09T23:55:15.041Z,10.67
